Flight Track Log - Related Links

Times and Time Zones

All times are in EDT time to prevent confusion due to time zone crossing. See the SWA472 flight status page for this flight to view local times or setup timezone preferences in your user account.

Time Position Orientation Groundspeed Altitude Reporting Facility
EDT Latitude Longitude Course Direction KTS MPH feet Rate Location/Type
Mon 09:12:15 AM 34.0558 -117.5792 203° Southwest 149 171 2,000  Level Los Angeles Center
Mon 09:13:16 AM 34.0200 -117.5978 203° Southwest 222 255 3,900 2,311 Climbing Los Angeles Center
Mon 09:14:17 AM 34.0450 -117.6711 292° West 233 268 6,700 1,537 Climbing Los Angeles Center
Mon 09:15:17 AM 34.0700 -117.7564 290° West 258 297 7,000 744 Climbing Los Angeles Center
Mon 09:16:18 AM 34.1081 -117.8292 302° West 266 306 8,200 2,066 Climbing Los Angeles Center
Mon 09:17:19 AM 34.1675 -117.9161 310° West 278 320 11,200 2,803 Climbing Los Angeles Center
Mon 09:18:20 AM 34.2314 -118.0111 309° West 354 407 13,900 2,926 Climbing Los Angeles Center
Mon 09:19:20 AM 34.2978 -118.1092 309° West 376 433 17,100 3,025 Climbing Los Angeles Center
Mon 09:20:21 AM 34.3678 -118.2117 310° West 394 453 20,000 2,754 Climbing Los Angeles Center
Mon 09:21:22 AM 34.4406 -118.3203 309° West 416 479 22,700 2,459 Climbing Los Angeles Center
Mon 09:22:23 AM 34.5161 -118.4264 311° West 417 480 25,000 2,066 Climbing Los Angeles Center
Mon 09:23:24 AM 34.6258 -118.4953 333° Northwest 447 514 26,900 1,820 Climbing Los Angeles Center
Mon 09:24:25 AM 34.7400 -118.5614 335° Northwest 454 522 28,700 2,311 Climbing Los Angeles Center
Mon 09:25:26 AM 34.8550 -118.6264 335° Northwest 455 524 31,600 2,557 Climbing Los Angeles Center
Mon 09:26:27 AM 34.9822 -118.6983 335° Northwest 440 506 33,900 1,967 Climbing Los Angeles Center
Mon 09:27:28 AM 35.0925 -118.7603 335° Northwest 437 503 35,600 1,033 Climbing Los Angeles Center
Mon 09:28:29 AM 35.2017 -118.8233 335° Northwest 436 502 36,000 197 Climbing Los Angeles Center
Mon 09:29:30 AM 35.3119 -118.8858 335° Northwest 437 503 36,000  Level Los Angeles Center
Mon 09:30:31 AM 35.4219 -118.9497 335° Northwest 438 504 36,000  Level Los Angeles Center
Mon 09:31:32 AM 35.5303 -119.0133 334° Northwest 437 503 36,000  Level Los Angeles Center
Mon 09:32:33 AM 35.6414 -119.0769 335° Northwest 438 504 36,000  Level Los Angeles Center
Mon 09:33:24 AM 35.7219 -119.1322 331° Northwest 432 497 36,000  Level Oakland Center
Mon 09:34:24 AM 35.8258 -119.2061 330° Northwest 431 496 36,000  Level Oakland Center
Mon 09:35:25 AM 35.9519 -119.2947 330° Northwest 434 499 36,000  Level Oakland Center
Mon 09:36:26 AM 36.0572 -119.3681 331° Northwest 439 505 36,000  Level Oakland Center
Mon 09:37:26 AM 36.1614 -119.4403 331° Northwest 433 498 36,000  Level Oakland Center
Mon 09:38:27 AM 36.2675 -119.5150 330° Northwest 439 505 36,000  Level Oakland Center
Mon 09:39:28 AM 36.3744 -119.5917 330° Northwest 445 512 36,000  Level Oakland Center
Mon 09:40:29 AM 36.4817 -119.6683 330° Northwest 448 516 36,000  Level Oakland Center
Mon 09:41:29 AM 36.5883 -119.7458 330° Northwest 445 512 36,000  Level Oakland Center
Mon 09:42:30 AM 36.6969 -119.8253 330° Northwest 451 519 36,000 -98 Level Oakland Center
Mon 09:43:31 AM 36.8058 -119.9025 330° Northwest 449 517 35,800 -590 Descending Oakland Center
Mon 09:44:32 AM 36.9117 -119.9789 330° Northwest 444 511 34,800 -992 Descending Oakland Center
Mon 09:45:32 AM 37.0178 -120.0564 330° Northwest 441 507 33,800 -992 Descending Oakland Center
Mon 09:46:33 AM 37.1367 -120.1436 330° Northwest 449 517 32,800 -984 Descending Oakland Center
Mon 09:47:34 AM 37.2436 -120.2194 331° Northwest 446 513 31,800 -1,033 Descending Oakland Center
Mon 09:48:35 AM 37.3528 -120.2944 331° Northwest 448 516 30,700 -3,273 Descending Oakland Center
Mon 09:49:35 AM 37.4531 -120.3828 325° Northwest 443 510 25,200 -5,610 Descending Oakland Center
Mon 09:49:52 AM 37.4833 -120.4167 318° Northwest 448 516 23,500 -2,338 Descending Northern Cal TRACON
Mon 09:50:52 AM 37.5833 -120.5000 327° Northwest 423 487 22,200 -1,257 Descending Northern Cal TRACON
Mon 09:51:37 AM 37.6378 -120.5628 318° Northwest 398 458 21,300 -1,302 Descending Oakland Center
Mon 09:52:38 AM 37.7239 -120.6456 323° Northwest 391 450 19,900 -1,388 Descending Oakland Center
Mon 09:53:38 AM 37.8089 -120.7311 322° Northwest 390 449 18,500 -1,537 Descending Oakland Center
Mon 09:54:39 AM 37.8928 -120.8161 321° Northwest 385 443 16,800 -1,574 Descending Oakland Center
Mon 09:55:40 AM 37.9739 -120.8981 321° Northwest 373 429 15,300 -1,475 Descending Oakland Center
Mon 09:56:41 AM 38.0525 -120.9789 321° Northwest 367 422 13,800 -1,475 Descending Oakland Center
Mon 09:57:42 AM 38.1206 -121.0683 314° West 354 407 12,300 -1,381 Descending Oakland Center
Mon 09:58:34 AM 38.1833 -121.1667 309° West 348 400 11,200 -1,068 Descending Northern Cal TRACON
Mon 09:59:40 AM 38.2500 -121.2667 310° West 331 381 10,200 -1,143 Descending Northern Cal TRACON
Mon 10:00:40 AM 38.3000 -121.3333 314° West 284 327 8,800 -1,350 Descending Northern Cal TRACON
Mon 10:01:40 AM 38.3500 -121.4167 307° West 269 310 7,500 -1,474 Descending Northern Cal TRACON
Mon 10:02:34 AM 38.4000 -121.4833 314° West 268 308 6,000 -1,474 Descending Northern Cal TRACON
Mon 10:03:34 AM 38.4500 -121.5500 314° West 262 302 4,700 -1,150 Descending Northern Cal TRACON
Mon 10:04:34 AM 38.5000 -121.6000 322° Northwest 237 273 3,700 -1,053 Descending Northern Cal TRACON
Mon 10:05:28 AM 38.5500 -121.6000 360° North 189 217 2,700 -947 Descending Northern Cal TRACON
Mon 10:06:28 AM 38.5833 -121.6000 360° North 146 168 1,900 -750 Descending Northern Cal TRACON
Mon 10:07:28 AM 38.6333 -121.6000 360° North 126 145 1,200 -632 Descending Northern Cal TRACON
Mon 10:08:22 AM 38.6500 -121.6000 360° North 109 125 700 -579 Descending Northern Cal TRACON
Mon 10:09:22 AM 38.6833 -121.6000 360° North 120 138 100 -600 Descending Northern Cal TRACON
Mon 10:11:00 AM 38.6833 -121.5833 46° Northeast  Level FlightAware Approximate
Mon 10:18:00 AM 38.6954 -121.5908 46° Northeast  Level Estimated

Login

Don't have an account? Register now (free) for customized features, flight alerts, and more!